Weather observations for the past three days for
University Airport
Imperial (Metric)
Date Time (pdt) Wind (mph) Vis. (mi.) Weather Sky Cond. Temperature (ºF) Relative Humidity Wind Chill (°F) Heat Index (°F) Pressure Precipitation (in)
Air Dwpt 6 hour altimeter (in) sea level (mb) 1 hr 3 hr 6 hr
Max. Min.
10 07:35 Calm 10.00 NULL NULL 57.2 55.4 94% 29.92 0.0
10 07:20 Calm 10.00 NULL NULL 55.4 55.4 100% 29.92 0.0
10 07:00 Calm 10.00 NULL NULL 55.4 55.4 100% 29.91 0.0
10 06:40 Calm 10.00 NULL NULL 53.6 53.6 100% 29.9 0.0
10 06:20 Calm 10.00 NULL NULL 53.6 53.6 100% 29.89 0.0
10 06:00 Calm 10.00 NULL NULL 53.6 53.6 100% 29.89 0.0
10 05:40 Calm 10.00 NULL NULL 53.6 53.6 100% 29.89 0.0
10 05:20 Calm 10.00 NULL NULL 53.6 53.6 100% 29.88 0.0
10 05:00 Calm 10.00 NULL NULL 53.6 53.6 100% 29.88 0.0
10 04:40 Calm 10.00 NULL NULL 53.6 53.6 100% 29.88 0.0
10 04:15 Calm 10.00 NULL NULL 53.6 53.6 100% 29.88 0.0
10 04:00 Calm 10.00 NULL NULL 55.4 55.4 100% 29.88 0.0
10 03:40 Calm 10.00 NULL NULL 55.4 55.4 100% 29.88 0.0
10 03:20 Calm 10.00 NULL NULL 55.4 55.4 100% 29.88 0.0
10 03:00 Calm 10.00 NULL NULL 55.4 55.4 100% 29.87 0.0
10 02:35 Calm 10.00 NULL NULL 55.4 55.4 100% 29.87 0.0
10 02:20 Calm 10.00 NULL NULL 57.2 55.4 94% 29.87 0.0
10 02:00 Calm 10.00 NULL NULL 57.2 55.4 94% 29.87 0.0
10 01:40 Calm 10.00 NULL NULL 57.2 57.2 100% 29.87 0.0
10 01:20 Calm 10.00 NULL NULL 57.2 57.2 100% 29.87 0.0
10 01:00 Calm 10.00 NULL NULL 57.2 57.2 100% 29.87 0.0
10 00:40 Calm 10.00 NULL NULL 59 57.2 94% 29.87 0.0
10 00:20 Calm 10.00 NULL NULL 59 57.2 94% 29.87 0.0
09 23:55 Calm 10.00 NULL NULL 60.8 55.4 83% 29.86 0.0
09 23:40 Calm 10.00 NULL NULL 62.6 55.4 77% 29.86 0.0
09 23:20 Calm 10.00 NULL NULL 62.6 55.4 77% 29.86 0.0
09 23:00 Calm 10.00 NULL NULL 62.6 55.4 77% 29.86 0.0
09 22:40 Calm 10.00 NULL NULL 64.4 55.4 73% 29.87 0.0
09 22:20 S 3 10.00 NULL NULL 64.4 55.4 73% 29.86 0.0
09 22:00 Calm 10.00 NULL NULL 64.4 57.2 78% 29.86 0.0
09 21:40 Calm 10.00 NULL NULL 66.2 55.4 68% 29.86 0.0
09 21:20 Calm 10.00 NULL NULL 68 57.2 69% 29.85 0.0
09 21:00 Calm 10.00 NULL NULL 68 57.2 69% 29.85 0.0
09 20:40 S 3 10.00 NULL NULL 71.6 57.2 61% 29.84 0.0
09 20:20 S 8 10.00 NULL NULL 73.4 57.2 57% 29.84 0.0
09 20:00 S 5 10.00 NULL NULL 75.2 59 57% 78 29.83 0.0
09 19:40 S 3 10.00 NULL NULL 78.8 60.8 54% 80 29.83 0.0
09 19:20 S 5 10.00 NULL NULL 80.6 62.6 54% 82 29.83 0.0
09 19:00 S 6 10.00 NULL NULL 82.4 62.6 51% 83 29.83 0.0
09 18:40 S 7 10.00 NULL NULL 84.2 62.6 48% 85 29.83 0.0
09 18:20 Calm 10.00 NULL NULL 84.2 64.4 51% 86 29.83 0.0
09 18:00 S 5 10.00 NULL NULL 84.2 64.4 51% 86 29.83 0.0
09 17:40 S 8 10.00 NULL NULL 86 62.6 46% 87 29.83 0.0
09 17:20 Calm 10.00 NULL NULL 87.8 62.6 43% 88 29.83 0.0
09 17:00 Calm 10.00 NULL NULL 89.6 59 36% 89 29.84 0.0
09 16:40 Calm 10.00 NULL NULL 89.6 57.2 33% 88 29.84 0.0
09 16:20 Calm 10.00 NULL NULL 87.8 57.2 35% 87 29.85 0.0
09 16:00 SW 6 10.00 NULL NULL 89.6 57.2 33% 88 29.85 0.0
09 15:40 Calm 10.00 NULL NULL 86 55.4 35% 85 29.86 0.0
09 15:20 Calm 10.00 NULL NULL 86 57.2 38% 85 29.87 0.0
09 15:00 S 3 10.00 NULL NULL 86 59 40% 85 29.88 0.0
09 14:40 Calm 10.00 NULL NULL 86 53.6 33% 84 29.89 0.0
09 14:20 Calm 10.00 NULL NULL 86 53.6 33% 84 29.89 0.0
09 14:00 Calm 10.00 NULL NULL 86 53.6 33% 84 29.9 0.0
09 13:40 Calm 10.00 NULL NULL 84.2 53.6 35% 83 29.91 0.0
09 13:20 Calm 10.00 NULL NULL 84.2 53.6 35% 83 29.91 0.0
09 13:00 Calm 10.00 NULL NULL 84.2 53.6 35% 83 29.92 0.0
09 12:40 N 3 10.00 NULL NULL 82.4 53.6 37% 81 29.93 0.0
09 12:20 NW 3 10.00 NULL NULL 82.4 55.4 40% 82 29.93 0.0
09 12:00 N 3 10.00 NULL NULL 80.6 55.4 42% 81 29.94 0.0
09 11:40 Calm 10.00 NULL NULL 78.8 55.4 45% 79 29.94 0.0
09 11:20 N 7 10.00 NULL NULL 78.8 55.4 45% 79 29.95 0.0
09 11:00 Calm 10.00 NULL NULL 77 59 54% 79 29.95 0.0
09 10:40 Calm 10.00 NULL NULL 75.2 59 57% 78 29.95 0.0
09 10:20 NW 3 10.00 NULL NULL 73.4 59 61% 29.95 0.0
09 10:00 Calm 10.00 NULL NULL 71.6 59 65% 29.95 0.0
09 09:40 Calm 10.00 NULL NULL 69.8 60.8 73% 29.96 0.0
09 09:20 Calm 10.00 NULL NULL 68 60.8 78% 29.96 0.0
09 09:00 Calm 10.00 NULL NULL 66.2 60.8 83% 29.96 0.0
09 08:40 Calm 10.00 NULL NULL 64.4 59 83% 29.96 0.0
09 08:20 Calm 10.00 NULL NULL 62.6 59 88% 29.96 0.0
09 08:00 Calm 10.00 NULL NULL 59 57.2 94% 29.96 0.0
09 07:40 Calm 9.00 NULL NULL 57.2 57.2 100% 29.96 0.0
09 07:20 Calm 10.00 NULL NULL 57.2 57.2 100% 29.96 0.0
09 07:00 Calm 9.00 NULL NULL 55.4 55.4 100% 29.95 0.0
09 06:40 Calm 9.00 NULL NULL 53.6 53.6 100% 29.95 0.0
09 06:20 Calm 10.00 NULL NULL 53.6 53.6 100% 29.94 0.0
09 06:00 Calm 10.00 NULL NULL 53.6 53.6 100% 29.94 0.0
09 05:40 Calm 9.00 NULL NULL 53.6 53.6 100% 29.93 0.0
09 05:20 Calm 10.00 NULL NULL 53.6 53.6 100% 29.93 0.0
09 05:00 Calm 10.00 NULL NULL 53.6 53.6 100% 29.94 0.0
09 04:40 Calm 10.00 NULL NULL 53.6 53.6 100% 29.94 0.0
09 04:20 Calm 9.00 NULL NULL 53.6 53.6 100% 29.93 0.0
09 04:00 Calm 10.00 NULL NULL 53.6 53.6 100% 29.94 0.0
09 03:40 Calm 10.00 NULL NULL 55.4 53.6 94% 29.93 0.0
09 03:20 Calm 10.00 NULL NULL 55.4 55.4 100% 29.93 0.0
09 03:00 Calm 10.00 NULL NULL 55.4 55.4 100% 29.93 0.0
09 02:40 Calm 10.00 NULL NULL 55.4 55.4 100% 29.93 0.0
09 02:20 Calm 10.00 NULL NULL 55.4 55.4 100% 29.94 0.0
09 02:00 Calm 10.00 NULL NULL 55.4 55.4 100% 29.94 0.0
09 01:40 Calm 10.00 NULL NULL 57.2 55.4 94% 29.94 0.0
09 01:20 Calm 10.00 NULL NULL 57.2 55.4 94% 29.94 0.0
09 01:00 Calm 10.00 NULL NULL 57.2 55.4 94% 29.94 0.0
09 00:40 Calm 10.00 NULL NULL 59 57.2 94% 29.94 0.0
09 00:20 Calm 10.00 NULL NULL 59 57.2 94% 29.94 0.0
09 00:00 Calm 10.00 NULL NULL 59 57.2 94% 29.94 0.0
08 23:40 Calm 10.00 NULL NULL 59 57.2 94% 29.94 0.0
08 23:20 Calm 10.00 NULL NULL 59 57.2 94% 29.94 0.0
08 23:00 Calm 10.00 NULL NULL 59 57.2 94% 29.94 0.0
08 22:40 Calm 10.00 NULL NULL 60.8 59 94% 29.94 0.0
08 22:20 Calm 10.00 NULL NULL 62.6 59 88% 29.94 0.0
08 22:00 Calm 10.00 NULL NULL 62.6 59 88% 29.94 0.0
08 21:40 Calm 10.00 NULL NULL 62.6 59 88% 29.94 0.0
08 21:20 Calm 10.00 NULL NULL 64.4 60.8 88% 29.93 0.0
08 21:00 Calm 10.00 NULL NULL 64.4 62.6 94% 29.93 0.0
08 20:40 Calm 10.00 NULL NULL 66.2 62.6 88% 29.93 0.0
08 20:20 Calm 10.00 NULL NULL 69.8 62.6 78% 29.92 0.0
08 20:00 S 5 10.00 NULL NULL 73.4 60.8 65% 29.92 0.0
08 19:40 Calm 10.00 NULL NULL 75.2 62.6 65% 77 29.92 0.0
08 19:20 Calm 10.00 NULL NULL 75.2 62.6 65% 77 29.92 0.0
08 19:00 S 7 10.00 NULL NULL 77 62.6 61% 79 29.92 0.0
08 18:40 S 7 10.00 NULL NULL 80.6 62.6 54% 82 29.92 0.0
08 18:20 S 7 10.00 NULL NULL 80.6 62.6 54% 82 29.93 0.0
08 18:00 S 8 10.00 NULL NULL 82.4 60.8 48% 83 29.93 0.0
08 17:40 SW 5 10.00 NULL NULL 82.4 60.8 48% 83 29.93 0.0
08 17:20 S 7 10.00 NULL NULL 82.4 60.8 48% 83 29.94 0.0
08 17:00 S 6 10.00 NULL NULL 82.4 60.8 48% 83 29.94 0.0
08 16:40 S 7 10.00 NULL NULL 82.4 62.6 51% 83 29.95 0.0
08 16:20 Calm 10.00 NULL NULL 82.4 60.8 48% 83 29.95 0.0
08 16:00 Calm 10.00 NULL NULL 82.4 60.8 48% 83 29.96 0.0
08 15:40 SW 3 10.00 NULL NULL 82.4 60.8 48% 83 29.97 0.0
08 15:20 SW 5 10.00 NULL NULL 82.4 60.8 48% 83 29.98 0.0
08 15:00 Calm 10.00 NULL NULL 82.4 55.4 40% 82 29.99 0.0
08 14:40 Calm 10.00 NULL NULL 80.6 57.2 45% 81 30 0.0
08 14:20 Calm 10.00 NULL NULL 80.6 59 48% 81 30.01 0.0
08 14:00 Calm 10.00 NULL NULL 78.8 59 51% 80 30.01 0.0
08 13:40 Calm 10.00 NULL NULL 80.6 59 48% 81 30.01 0.0
08 13:20 Calm 10.00 NULL NULL 77 59 54% 79 30.02 0.0
08 13:00 Calm 10.00 NULL NULL 77 60.8 57% 79 30.03 0.0
08 12:40 Calm 10.00 NULL NULL 75.2 60.8 61% 77 30.03 0.0
08 12:20 Calm 10.00 NULL NULL 75.2 60.8 61% 77 30.04 0.0
08 12:00 Calm 10.00 NULL NULL 75.2 60.8 61% 77 30.04 0.0
08 11:40 Calm 10.00 NULL NULL 73.4 60.8 65% 30.05 0.0
08 11:20 Calm 10.00 NULL NULL 71.6 60.8 69% 30.05 0.0
08 11:00 Calm 10.00 NULL NULL 69.8 59 69% 30.05 0.0
08 10:40 Calm 10.00 NULL NULL 68 59 73% 30.05 0.0
08 10:20 Calm 10.00 NULL NULL 66.2 59 78% 30.05 0.0
08 10:00 Calm 10.00 NULL NULL 64.4 59 83% 30.05 0.0
08 09:40 Calm 10.00 NULL NULL 64.4 59 83% 30.05 0.0
08 09:20 Calm 10.00 NULL NULL 62.6 59 88% 30.05 0.0
08 09:00 Calm 10.00 NULL NULL 62.6 59 88% 30.05 0.0
08 08:40 Calm 10.00 NULL NULL 59 57.2 94% 30.05 0.0
08 08:20 Calm 10.00 NULL NULL 59 57.2 94% 30.05 0.0
08 08:00 Calm 10.00 NULL NULL 57.2 57.2 100% 30.04 0.0
08 07:40 Calm 10.00 NULL NULL 55.4 55.4 100% 30.04 0.0
08 07:20 Calm 10.00 NULL NULL 53.6 53.6 100% 30.03 0.0
08 07:00 Calm 10.00 NULL NULL 53.6 53.6 100% 30.02 0.0
08 06:40 Calm 10.00 NULL NULL 51.8 51.8 100% 30.02 0.0
08 06:20 Calm 10.00 NULL NULL 50 50 100% 30.01 0.0
08 06:00 Calm 10.00 NULL NULL 50 50 100% 30.01 0.0
08 05:40 Calm 10.00 NULL NULL 51.8 51.8 100% 30.01 0.0
08 05:20 Calm 10.00 NULL NULL 51.8 51.8 100% 30.01 0.0
08 05:00 Calm 10.00 NULL NULL 51.8 51.8 100% 30 0.0
08 04:40 Calm 10.00 NULL NULL 51.8 51.8 100% 30 0.0
08 04:20 Calm 10.00 NULL NULL 51.8 51.8 100% 29.99 0.0
08 04:00 Calm 10.00 NULL NULL 53.6 53.6 100% 29.99 0.0
08 03:40 Calm 10.00 NULL NULL 51.8 51.8 100% 29.99 0.0
08 03:20 Calm 10.00 NULL NULL 53.6 53.6 100% 29.99 0.0
08 03:00 Calm 10.00 NULL NULL 53.6 53.6 100% 29.99 0.0
08 02:40 Calm 10.00 NULL NULL 53.6 53.6 100% 29.99 0.0
08 02:20 Calm 10.00 NULL NULL 53.6 53.6 100% 29.99 0.0
08 02:00 Calm 10.00 NULL NULL 53.6 53.6 100% 29.99 0.0
08 01:40 Calm 10.00 NULL NULL 55.4 55.4 100% 29.99 0.0
08 01:20 Calm 10.00 NULL NULL 55.4 55.4 100% 29.99 0.0
08 01:00 Calm 10.00 NULL NULL 55.4 55.4 100% 29.99 0.0
08 00:40 Calm 10.00 NULL NULL 55.4 55.4 100% 29.98 0.0
08 00:20 Calm 10.00 NULL NULL 55.4 55.4 100% 29.98 0.0
08 00:00 Calm 10.00 NULL NULL 55.4 55.4 100% 29.98 0.0
07 23:40 Calm 10.00 NULL NULL 57.2 57.2 100% 29.98 0.0
07 23:20 Calm 10.00 NULL NULL 57.2 57.2 100% 29.98 0.0
07 23:00 Calm 10.00 NULL NULL 59 57.2 94% 29.98 0.0
07 22:40 Calm 10.00 NULL NULL 60.8 59 94% 29.98 0.0
07 22:20 Calm 10.00 NULL NULL 60.8 59 94% 29.98 0.0
07 22:00 Calm 10.00 NULL NULL 62.6 59 88% 29.98 0.0
07 21:40 Calm 10.00 NULL NULL 62.6 60.8 94% 29.97 0.0
07 21:20 Calm 10.00 NULL NULL 64.4 60.8 88% 29.97 0.0
07 21:00 Calm 10.00 NULL NULL 64.4 60.8 88% 29.96 0.0
07 20:40 Calm 10.00 NULL NULL 66.2 62.6 88% 29.96 0.0
07 20:20 Calm 10.00 NULL NULL 66.2 62.6 88% 29.95 0.0
07 20:00 Calm 10.00 NULL NULL 69.8 60.8 73% 29.95 0.0
07 19:40 Calm 10.00 NULL NULL 73.4 62.6 69% 29.95 0.0
07 19:20 S 7 10.00 NULL NULL 75.2 64.4 69% 77 29.95 0.0
07 19:00 S 7 10.00 NULL NULL 77 62.6 61% 79 29.95 0.0
07 18:40 S 3 10.00 NULL NULL 78.8 62.6 58% 80 29.95 0.0
07 18:20 S 3 10.00 NULL NULL 80.6 62.6 54% 82 29.95 0.0
07 18:00 S 3 10.00 NULL NULL 80.6 62.6 54% 82 29.96 0.0
07 17:40 S 7 10.00 NULL NULL 80.6 62.6 54% 82 29.96 0.0
07 17:20 S 3 10.00 NULL NULL 82.4 62.6 51% 83 29.96 0.0
07 17:00 SE 5 10.00 NULL NULL 82.4 62.6 51% 83 29.96 0.0
07 16:40 Calm 10.00 NULL NULL 82.4 60.8 48% 83 29.96 0.0
07 16:20 Calm 10.00 NULL NULL 80.6 60.8 51% 81 29.97 0.0
07 16:00 Calm 10.00 NULL NULL 80.6 60.8 51% 81 29.98 0.0
07 15:40 Calm 10.00 NULL NULL 80.6 59 48% 81 29.99 0.0
07 15:20 Calm 10.00 NULL NULL 80.6 60.8 51% 81 30 0.0
07 15:00 Calm 10.00 NULL NULL 80.6 60.8 51% 81 30.01 0.0
07 14:40 Calm 10.00 NULL NULL 77 59 54% 79 30.02 0.0
07 14:20 Calm 10.00 NULL NULL 77 59 54% 79 30.03 0.0
07 14:00 Calm 10.00 NULL NULL 77 60.8 57% 79 30.03 0.0
07 13:40 Calm 10.00 NULL NULL 77 59 54% 79 30.04 0.0
07 13:20 Calm 10.00 NULL NULL 75.2 59 57% 78 30.05 0.0
07 13:00 Calm 10.00 NULL NULL 75.2 60.8 61% 77 30.05 0.0
07 12:40 Calm 10.00 NULL NULL 73.4 59 61% 30.06 0.0
07 12:20 Calm 10.00 NULL NULL 73.4 59 61% 30.07 0.0
07 12:00 Calm 10.00 NULL NULL 71.6 59 65% 30.07 0.0
07 11:40 Calm 10.00 NULL NULL 71.6 60.8 69% 30.08 0.0
07 11:20 NW 3 10.00 NULL NULL 68 59 73% 30.08 0.0
07 11:00 Calm 10.00 NULL NULL 68 59 73% 30.08 0.0
07 10:40 Calm 10.00 NULL NULL 66.2 59 78% 30.09 0.0
07 10:20 Calm 10.00 NULL NULL 66.2 59 78% 30.09 0.0
07 10:00 Calm 10.00 NULL NULL 64.4 59 83% 30.09 0.0
07 09:40 Calm 10.00 NULL NULL 62.6 59 88% 30.09 0.0
07 09:20 Calm 10.00 NULL NULL 62.6 59 88% 30.09 0.0
07 09:00 Calm 10.00 NULL NULL 60.8 59 94% 30.09 0.0
07 08:40 Calm 10.00 NULL NULL 59 59 100% 30.09 0.0
07 08:20 Calm 10.00 NULL NULL 59 57.2 94% 30.09 0.0
07 08:00 Calm 10.00 NULL NULL 57.2 57.2 100% 30.09 0.0
Date Time (pdt) Wind (mph) Vis. (mi.) Weather Sky Cond. Air Dwpt Max. Min. Relative Humidity Wind Chill (°F) Heat Index (°F) altimeter (in) sea level (mb) 1 hr 3 hr 6 hr
6 hour
Temperature (ºF) Pressure Precipitation (in)